Time;durP1;ratioP1;P1;durP2;ratioP2;P2;SDS_P1;SDS_P2;PMS_P1;PMS_P2;Temp;Humidity;BMP_temperature;BMP_pressure;BME280_temperature;BME280_humidity;BME280_pressure;Samples;Min_cycle;Max_cycle;Signal;HPM_P1;HPM_P2
2022/05/17 00:00:51;;;;;;;9.55;4.60;;;18.40;72.20;;;;;;5022628;28;20083;-73
2022/05/17 00:03:17;;;;;;;7.70;4.65;;;18.30;72.20;;;;;;5035529;28;20499;-74
2022/05/17 00:05:43;;;;;;;9.55;4.78;;;18.30;72.30;;;;;;5040697;28;20032;-72
2022/05/17 00:08:08;;;;;;;8.93;5.32;;;18.30;72.40;;;;;;5037752;28;20523;-73
2022/05/17 00:10:34;;;;;;;11.93;5.10;;;18.20;72.50;;;;;;5058227;28;20040;-74
2022/05/17 00:12:59;;;;;;;8.60;5.15;;;18.20;72.50;;;;;;5042549;28;20036;-74
2022/05/17 00:15:25;;;;;;;8.80;5.13;;;18.20;72.60;;;;;;5026079;28;20489;-72
2022/05/17 00:17:51;;;;;;;10.45;5.57;;;18.10;73.00;;;;;;5025158;28;20045;-73
2022/05/17 00:20:17;;;;;;;11.70;4.82;;;18.10;73.10;;;;;;5037725;28;20044;-74
2022/05/17 00:22:43;;;;;;;7.70;5.22;;;18.00;73.20;;;;;;5033388;28;20384;-72
2022/05/17 00:25:08;;;;;;;10.30;5.30;;;18.00;73.30;;;;;;5018003;28;20043;-72
2022/05/17 00:27:34;;;;;;;6.88;5.10;;;18.00;73.50;;;;;;5041334;28;20041;-75
2022/05/17 00:30:00;;;;;;;9.30;5.20;;;17.90;73.60;;;;;;5026715;28;20491;-73
2022/05/17 00:32:25;;;;;;;10.18;5.35;;;17.90;73.70;;;;;;5041528;28;20654;-72
2022/05/17 00:34:51;;;;;;;7.60;5.45;;;17.80;73.80;;;;;;5053300;28;20074;-72
2022/05/17 00:37:16;;;;;;;8.23;5.45;;;17.70;73.90;;;;;;5045858;28;20422;-72
2022/05/17 00:39:42;;;;;;;11.05;5.13;;;17.70;74.00;;;;;;5017344;28;20590;-73
2022/05/17 00:42:08;;;;;;;10.90;5.13;;;17.70;74.20;;;;;;5019458;28;20037;-72
2022/05/17 00:44:42;;;;;;;9.43;5.63;;;17.60;74.30;;;;;;5045432;28;20841;-73
2022/05/17 00:47:21;;;;;;;7.53;5.35;;;17.60;75.20;;;;;;5029786;28;20043;-72
2022/05/17 00:49:50;;;;;;;10.48;5.93;;;17.60;74.50;;;;;;5028076;28;20032;-74
2022/05/17 00:52:19;;;;;;;10.32;6.22;;;17.50;74.50;;;;;;5038610;28;20029;-73
2022/05/17 00:54:45;;;;;;;8.90;5.97;;;17.50;74.80;;;;;;5036908;28;20512;-72
2022/05/17 00:57:17;;;;;;;8.18;5.60;;;17.50;74.70;;;;;;5037774;28;20036;-72
2022/05/17 00:59:42;;;;;;;8.90;5.57;;;17.40;74.80;;;;;;5044150;28;20142;-74
2022/05/17 01:02:08;;;;;;;7.45;5.40;;;17.40;74.70;;;;;;5018004;28;20036;-74
2022/05/17 01:04:34;;;;;;;8.77;5.65;;;17.40;74.70;;;;;;5010225;28;20406;-74
2022/05/17 01:07:10;;;;;;;9.93;5.82;;;17.30;74.80;;;;;;5019210;28;20446;-74
2022/05/17 01:09:36;;;;;;;8.52;5.57;;;17.30;75.20;;;;;;5027149;28;20730;-72
2022/05/17 01:12:01;;;;;;;8.73;5.55;;;17.20;75.10;;;;;;5022557;28;20530;-72
2022/05/17 01:17:11;;;;;;;8.38;5.82;;;17.10;75.30;;;;;;5027108;28;20051;-72
2022/05/17 01:19:41;;;;;;;9.68;5.78;;;17.10;75.40;;;;;;5055845;28;20017;-73
2022/05/17 01:22:07;;;;;;;9.70;5.38;;;17.00;75.60;;;;;;5023253;28;20029;-72
2022/05/17 01:24:32;;;;;;;12.40;5.93;;;17.00;75.60;;;;;;5041078;28;20043;-74
2022/05/17 01:27:25;;;;;;;11.02;5.97;;;16.90;75.60;;;;;;5021751;28;20518;-72
2022/05/17 01:29:50;;;;;;;10.32;5.00;;;16.90;76.10;;;;;;5040100;28;20039;-74
2022/05/17 01:32:16;;;;;;;6.90;4.82;;;16.90;75.70;;;;;;5021765;28;20452;-73
2022/05/17 01:34:43;;;;;;;8.77;5.13;;;16.90;75.70;;;;;;5040129;28;20086;-74
2022/05/17 01:37:08;;;;;;;6.07;4.75;;;16.80;75.60;;;;;;5042921;28;20376;-73
2022/05/17 01:39:34;;;;;;;8.48;5.38;;;16.80;75.60;;;;;;5035845;28;20047;-72
2022/05/17 01:42:00;;;;;;;7.80;5.78;;;16.70;75.60;;;;;;5044763;28;20037;-73
2022/05/17 01:44:25;;;;;;;10.60;6.40;;;16.70;75.60;;;;;;5036250;28;20032;-75
2022/05/17 01:46:51;;;;;;;11.45;6.43;;;16.70;75.70;;;;;;5040696;28;20729;-72
2022/05/17 01:49:17;;;;;;;9.80;5.78;;;16.60;75.70;;;;;;5049398;28;20088;-73
2022/05/17 01:51:42;;;;;;;10.77;6.00;;;16.60;75.80;;;;;;5055988;28;20502;-72
2022/05/17 01:54:08;;;;;;;9.35;6.00;;;16.60;75.90;;;;;;5060814;28;20035;-72
2022/05/17 01:56:34;;;;;;;13.23;6.70;;;16.50;76.00;;;;;;5052096;28;20033;-73
2022/05/17 01:58:59;;;;;;;7.82;6.07;;;16.50;76.20;;;;;;5026608;28;20032;-72
2022/05/17 02:01:25;;;;;;;11.80;6.03;;;16.40;76.20;;;;;;5005756;28;20647;-74
2022/05/17 02:03:51;;;;;;;7.05;4.88;;;16.40;76.30;;;;;;5045025;28;20059;-73
2022/05/17 02:06:17;;;;;;;10.20;6.30;;;16.40;76.40;;;;;;5036124;28;20044;-72
2022/05/17 02:08:43;;;;;;;10.13;6.43;;;16.40;76.30;;;;;;5045623;28;20107;-72
2022/05/17 02:11:08;;;;;;;9.05;6.40;;;16.30;76.50;;;;;;5020034;28;20588;-72
2022/05/17 02:13:34;;;;;;;9.38;6.22;;;16.30;76.60;;;;;;5039395;28;20107;-73
2022/05/17 02:16:03;;;;;;;9.82;6.28;;;16.20;77.50;;;;;;5019002;28;20063;-73
2022/05/17 02:18:28;;;;;;;9.73;6.47;;;16.20;76.90;;;;;;5017728;28;20579;-72
2022/05/17 02:20:54;;;;;;;9.48;6.30;;;16.10;76.90;;;;;;5042936;28;20128;-73
2022/05/17 02:23:19;;;;;;;11.05;5.88;;;16.10;77.20;;;;;;5037765;28;20050;-72
2022/05/17 02:25:45;;;;;;;10.45;6.88;;;16.00;77.30;;;;;;5037943;28;20514;-73
2022/05/17 02:28:10;;;;;;;11.00;6.65;;;16.00;77.20;;;;;;5049478;28;20613;-73
2022/05/17 02:30:36;;;;;;;8.50;6.18;;;15.90;77.40;;;;;;5033197;28;20033;-73
2022/05/17 02:33:04;;;;;;;13.15;6.70;;;15.90;77.50;;;;;;5049805;28;20475;-72
2022/05/17 02:35:30;;;;;;;11.57;6.65;;;15.90;77.60;;;;;;5059453;28;20111;-73
2022/05/17 02:37:56;;;;;;;10.90;6.30;;;15.80;77.60;;;;;;5012882;28;20789;-72
2022/05/17 02:40:21;;;;;;;9.60;5.72;;;15.70;77.70;;;;;;5050097;28;20029;-72
2022/05/17 02:42:47;;;;;;;9.73;5.45;;;15.70;77.90;;;;;;5060688;28;20027;-73
2022/05/17 02:45:12;;;;;;;7.43;5.47;;;15.70;77.70;;;;;;5065209;28;20032;-72
2022/05/17 02:47:38;;;;;;;7.93;5.30;;;15.70;77.70;;;;;;5028870;28;20035;-72
2022/05/17 02:50:04;;;;;;;9.07;5.40;;;15.70;77.70;;;;;;5055262;28;20032;-72
2022/05/17 02:52:30;;;;;;;10.13;5.32;;;15.70;77.60;;;;;;5060477;28;20242;-73
2022/05/17 02:54:55;;;;;;;8.07;5.93;;;15.70;77.60;;;;;;5055650;28;20667;-73
2022/05/17 02:57:21;;;;;;;7.32;4.78;;;15.70;77.60;;;;;;5026924;28;20024;-72
2022/05/17 02:59:46;;;;;;;9.52;6.43;;;15.70;77.60;;;;;;5015386;28;20878;-72
2022/05/17 03:02:12;;;;;;;12.38;5.97;;;15.60;77.50;;;;;;5037375;28;20461;-73
2022/05/17 03:04:37;;;;;;;6.72;5.43;;;15.60;77.60;;;;;;5042111;28;20101;-73
2022/05/17 03:07:03;;;;;;;9.40;6.22;;;15.60;77.90;;;;;;5050844;28;20038;-73
2022/05/17 03:09:29;;;;;;;13.07;6.80;;;15.50;77.90;;;;;;5057855;28;20070;-74
2022/05/17 03:11:54;;;;;;;9.05;5.45;;;15.50;78.00;;;;;;5047366;28;20510;-73
2022/05/17 03:14:21;;;;;;;7.75;5.65;;;15.50;78.00;;;;;;5072288;28;20082;-73
2022/05/17 03:16:47;;;;;;;5.90;4.53;;;15.40;78.20;;;;;;5040943;28;20487;-72
2022/05/17 03:19:12;;;;;;;8.95;5.25;;;15.40;78.10;;;;;;5057357;28;20042;-72
2022/05/17 03:21:38;;;;;;;9.18;5.25;;;15.40;78.00;;;;;;5042046;28;20113;-73
2022/05/17 03:24:04;;;;;;;6.55;5.03;;;15.40;78.00;;;;;;5015683;28;20115;-72
2022/05/17 03:26:30;;;;;;;9.32;5.18;;;15.40;77.90;;;;;;5056883;28;20775;-73
2022/05/17 03:28:58;;;;;;;6.93;5.00;;;15.30;77.80;;;;;;5057864;28;20024;-73
2022/05/17 03:31:25;;;;;;;11.30;6.15;;;15.30;77.80;;;;;;5040549;28;20028;-74
2022/05/17 03:33:50;;;;;;;7.50;5.32;;;15.30;77.90;;;;;;5048346;28;20061;-74
2022/05/17 03:36:16;;;;;;;6.78;4.72;;;15.30;77.90;;;;;;5049341;28;20045;-72
2022/05/17 03:38:41;;;;;;;12.43;6.25;;;15.30;77.90;;;;;;5030966;28;21034;-73
2022/05/17 03:41:07;;;;;;;10.45;5.80;;;15.30;77.90;;;;;;5019719;28;21582;-73
2022/05/17 03:43:32;;;;;;;11.25;6.25;;;15.20;77.80;;;;;;5049668;28;20517;-73
2022/05/17 03:45:58;;;;;;;8.80;5.88;;;15.20;77.90;;;;;;5024369;28;20094;-73
2022/05/17 03:48:24;;;;;;;6.65;4.93;;;15.20;78.00;;;;;;5047908;28;20444;-73
2022/05/17 03:50:50;;;;;;;8.23;5.40;;;15.20;78.00;;;;;;5032386;28;20502;-74
2022/05/17 03:53:16;;;;;;;10.88;5.60;;;15.20;78.00;;;;;;5027952;28;20086;-73
2022/05/17 03:55:41;;;;;;;8.52;5.70;;;15.20;78.10;;;;;;5052423;28;20087;-73
2022/05/17 03:58:07;;;;;;;8.48;5.78;;;15.10;78.00;;;;;;5036884;28;20109;-73
2022/05/17 04:00:33;;;;;;;7.65;5.00;;;15.10;78.00;;;;;;5027503;28;20081;-75
2022/05/17 04:02:58;;;;;;;9.65;5.28;;;15.10;77.90;;;;;;5048526;28;20037;-73
2022/05/17 04:05:24;;;;;;;7.22;4.93;;;15.10;77.80;;;;;;5049426;28;20037;-73
2022/05/17 04:07:49;;;;;;;7.57;5.10;;;15.10;77.80;;;;;;5043453;28;20905;-73
2022/05/17 04:10:15;;;;;;;9.40;5.00;;;15.10;77.70;;;;;;5056993;28;20119;-73
2022/05/17 04:12:41;;;;;;;8.98;5.55;;;15.10;77.60;;;;;;5050612;28;20071;-72
2022/05/17 04:15:09;;;;;;;10.73;5.20;;;15.10;77.60;;;;;;5020369;28;20040;-73
2022/05/17 04:17:34;;;;;;;7.53;5.05;;;15.10;77.70;;;;;;5025745;28;20036;-73
2022/05/17 04:20:00;;;;;;;7.38;4.78;;;15.10;77.80;;;;;;5053280;28;20040;-73
2022/05/17 04:22:25;;;;;;;8.40;4.68;;;15.10;77.60;;;;;;5024888;28;20032;-73
2022/05/17 04:24:55;;;;;;;8.65;5.82;;;15.00;77.60;;;;;;5051583;28;20082;-73
2022/05/17 04:27:22;;;;;;;9.57;5.07;;;15.00;77.70;;;;;;5054838;28;20090;-73
2022/05/17 04:29:47;;;;;;;8.80;5.15;;;15.00;77.70;;;;;;5018297;28;20056;-73
2022/05/17 04:32:13;;;;;;;8.23;5.43;;;15.00;77.80;;;;;;5032463;28;20055;-72
2022/05/17 04:34:39;;;;;;;10.43;5.20;;;15.00;77.90;;;;;;5016209;28;20048;-73
2022/05/17 04:37:04;;;;;;;7.32;5.20;;;15.00;77.90;;;;;;5003379;28;20028;-73
2022/05/17 04:39:30;;;;;;;7.93;4.68;;;15.00;77.80;;;;;;5035744;28;20454;-73
2022/05/17 04:41:56;;;;;;;9.35;5.53;;;15.00;78.00;;;;;;5040100;28;20040;-73
2022/05/17 04:44:22;;;;;;;8.07;4.35;;;15.00;78.00;;;;;;5023064;28;20021;-73
2022/05/17 04:46:47;;;;;;;7.38;5.40;;;14.90;77.90;;;;;;5033763;28;20037;-73
2022/05/17 04:49:13;;;;;;;5.95;4.93;;;15.00;78.00;;;;;;5045422;28;20032;-73
2022/05/17 04:51:39;;;;;;;6.97;5.07;;;15.00;78.10;;;;;;5039430;28;20120;-73
2022/05/17 04:54:04;;;;;;;10.00;5.30;;;15.00;78.30;;;;;;5026640;28;20029;-72
2022/05/17 04:56:30;;;;;;;11.45;6.10;;;15.00;79.20;;;;;;5040392;28;20044;-73
2022/05/17 04:58:55;;;;;;;8.63;5.65;;;15.00;78.40;;;;;;5034757;28;20033;-73
2022/05/17 05:01:21;;;;;;;5.38;4.57;;;15.10;78.70;;;;;;5028720;28;20136;-72
2022/05/17 05:03:47;;;;;;;10.10;6.07;;;15.10;78.60;;;;;;5054707;28;20033;-73
2022/05/17 05:06:12;;;;;;;9.13;5.75;;;15.10;78.50;;;;;;5051863;28;20623;-73
2022/05/17 05:08:38;;;;;;;9.55;6.07;;;15.10;78.60;;;;;;5015677;28;20037;-72
2022/05/17 05:11:03;;;;;;;9.15;6.28;;;15.20;78.70;;;;;;5028421;28;20131;-73
2022/05/17 05:13:29;;;;;;;7.55;5.18;;;15.20;79.70;;;;;;5037443;28;20064;-74
2022/05/17 05:15:55;;;;;;;7.53;6.22;;;15.20;78.80;;;;;;5038525;28;20616;-72
2022/05/17 05:18:21;;;;;;;10.57;6.90;;;15.30;78.80;;;;;;5026005;28;20108;-73
2022/05/17 05:20:47;;;;;;;9.52;5.97;;;15.30;78.90;;;;;;5017705;28;20024;-72
2022/05/17 05:23:12;;;;;;;7.90;6.53;;;15.30;79.00;;;;;;5042676;28;20720;-72
2022/05/17 05:25:38;;;;;;;9.45;5.35;;;15.40;79.20;;;;;;5037456;28;20029;-72
2022/05/17 05:28:05;;;;;;;12.38;7.70;;;15.40;79.10;;;;;;5026807;28;20040;-72
2022/05/17 05:30:31;;;;;;;8.60;6.22;;;15.40;79.30;;;;;;5045920;28;20627;-74
2022/05/17 05:32:57;;;;;;;10.73;7.30;;;15.50;79.30;;;;;;5047737;28;20040;-73
2022/05/17 05:35:24;;;;;;;16.02;7.45;;;15.50;79.40;;;;;;5054276;28;20041;-72
2022/05/17 05:37:50;;;;;;;11.73;6.80;;;15.60;79.50;;;;;;5041015;28;20036;-73
2022/05/17 05:40:15;;;;;;;16.75;7.70;;;15.60;79.70;;;;;;5054692;28;20047;-73
2022/05/17 05:42:41;;;;;;;13.32;7.50;;;15.70;79.80;;;;;;5027866;28;20040;-72
2022/05/17 05:45:08;;;;;;;11.80;8.15;;;15.70;79.80;;;;;;5026733;28;20037;-72
2022/05/17 05:47:33;;;;;;;12.95;8.30;;;15.80;80.00;;;;;;5042267;28;20060;-73
2022/05/17 05:49:59;;;;;;;12.68;8.23;;;15.80;80.00;;;;;;5047656;28;20036;-72
2022/05/17 05:52:24;;;;;;;11.80;8.18;;;15.90;80.20;;;;;;5042215;28;20075;-72
2022/05/17 05:54:50;;;;;;;13.82;6.70;;;15.90;80.10;;;;;;5011351;28;20068;-72
2022/05/17 05:57:15;;;;;;;11.80;6.65;;;16.00;80.00;;;;;;5019668;28;20029;-73
2022/05/17 05:59:41;;;;;;;12.93;5.68;;;16.10;79.90;;;;;;5034328;28;20122;-72
2022/05/17 06:02:07;;;;;;;13.30;7.22;;;16.20;79.70;;;;;;5035822;28;20617;-73
2022/05/17 06:04:32;;;;;;;8.18;6.30;;;16.20;79.60;;;;;;5036834;28;20129;-73
2022/05/17 06:06:58;;;;;;;12.70;6.25;;;16.30;79.70;;;;;;5046557;28;20175;-73
2022/05/17 06:09:24;;;;;;;12.35;7.55;;;16.40;79.50;;;;;;5048757;28;20083;-72
2022/05/17 06:11:50;;;;;;;11.27;7.40;;;16.50;79.50;;;;;;5038247;28;20036;-73
2022/05/17 06:14:16;;;;;;;10.52;8.18;;;16.50;79.40;;;;;;5036404;28;20104;-74
2022/05/17 06:16:41;;;;;;;8.70;7.03;;;16.60;79.40;;;;;;5015502;28;20032;-73
2022/05/17 06:19:07;;;;;;;14.20;7.70;;;16.70;79.40;;;;;;5018237;28;20020;-73
2022/05/17 06:21:32;;;;;;;12.13;7.47;;;16.80;79.50;;;;;;5023941;28;20127;-73
2022/05/17 06:23:58;;;;;;;13.60;6.53;;;16.90;79.30;;;;;;5032418;28;20041;-74
2022/05/17 06:26:24;;;;;;;10.77;7.00;;;17.00;79.20;;;;;;5039543;28;20040;-73
2022/05/17 06:28:50;;;;;;;11.63;7.85;;;17.10;79.10;;;;;;5038670;28;20044;-73
2022/05/17 06:31:15;;;;;;;10.85;7.03;;;17.20;79.20;;;;;;5023250;28;20107;-73
2022/05/17 06:33:41;;;;;;;11.20;7.13;;;17.30;79.00;;;;;;5022823;28;20036;-73
2022/05/17 06:36:06;;;;;;;11.32;7.72;;;17.40;78.80;;;;;;5054631;28;20075;-74
2022/05/17 06:38:32;;;;;;;10.25;6.75;;;17.50;78.90;;;;;;5031250;28;20043;-73
2022/05/17 06:40:58;;;;;;;14.40;8.15;;;17.60;78.80;;;;;;5020071;28;20033;-73
2022/05/17 06:43:24;;;;;;;9.15;6.47;;;17.80;78.70;;;;;;5032553;28;20029;-73
2022/05/17 06:45:50;;;;;;;13.00;6.95;;;17.90;78.70;;;;;;5019158;28;20087;-73
2022/05/17 06:48:15;;;;;;;13.60;7.10;;;18.00;78.50;;;;;;5033340;28;20029;-73
2022/05/17 06:50:41;;;;;;;11.77;6.28;;;18.20;78.40;;;;;;5024109;28;20552;-73
2022/05/17 06:53:08;;;;;;;10.98;6.90;;;18.30;78.20;;;;;;5041325;28;20033;-73
2022/05/17 06:55:34;;;;;;;10.32;6.05;;;18.50;77.90;;;;;;5023898;28;20045;-73
2022/05/17 06:57:59;;;;;;;14.45;7.60;;;18.60;77.50;;;;;;5039400;28;20062;-73
2022/05/17 07:00:26;;;;;;;9.60;5.53;;;18.70;77.30;;;;;;5050712;28;20048;-73
2022/05/17 07:02:52;;;;;;;13.02;7.10;;;18.90;77.10;;;;;;5044333;28;20036;-73
2022/05/17 07:05:17;;;;;;;6.97;5.15;;;19.00;76.70;;;;;;5036568;28;20044;-74
2022/05/17 07:07:43;;;;;;;9.07;5.65;;;19.10;76.30;;;;;;5038493;28;20032;-73
2022/05/17 07:13:09;;;;;;;13.30;5.68;;;19.40;75.70;;;;;;5041821;28;20044;-73
2022/05/17 07:15:40;;;;;;;9.23;5.30;;;19.60;75.30;;;;;;5039281;28;20045;-74
2022/05/17 07:18:06;;;;;;;11.82;5.28;;;19.80;74.90;;;;;;5035391;28;20047;-74
2022/05/17 07:20:32;;;;;;;13.75;5.72;;;19.90;74.50;;;;;;5035911;28;20056;-73
2022/05/17 07:22:57;;;;;;;6.53;4.55;;;20.00;74.10;;;;;;5016949;28;20068;-73
2022/05/17 07:25:23;;;;;;;12.00;4.35;;;20.20;73.70;;;;;;5031245;28;20036;-74
2022/05/17 07:27:48;;;;;;;5.70;4.45;;;20.30;73.40;;;;;;5049230;28;20044;-73
2022/05/17 07:30:14;;;;;;;8.38;4.85;;;20.50;73.00;;;;;;5011460;28;20052;-73
2022/05/17 07:32:40;;;;;;;13.13;5.20;;;20.70;72.40;;;;;;5032224;28;20094;-74
2022/05/17 07:35:08;;;;;;;13.40;5.13;;;20.80;71.90;;;;;;5051022;28;20044;-74
2022/05/17 07:37:34;;;;;;;12.77;6.03;;;21.00;71.40;;;;;;5028609;28;20122;-74
2022/05/17 07:40:00;;;;;;;10.70;5.38;;;21.10;70.80;;;;;;5051251;28;20040;-74
2022/05/17 07:42:26;;;;;;;9.45;5.20;;;21.30;70.30;;;;;;5012156;28;20477;-73
2022/05/17 07:44:51;;;;;;;10.48;5.38;;;21.40;70.00;;;;;;5043913;28;20037;-75
2022/05/17 07:47:17;;;;;;;7.97;5.15;;;21.50;69.50;;;;;;5045625;28;20028;-74
2022/05/17 07:49:42;;;;;;;13.90;6.00;;;21.60;69.00;;;;;;5047354;28;20044;-73
2022/05/17 07:52:09;;;;;;;9.10;5.00;;;21.60;68.50;;;;;;5016257;28;20033;-73
2022/05/17 07:54:36;;;;;;;8.85;4.82;;;21.80;68.20;;;;;;5032090;28;20032;-74
2022/05/17 07:57:01;;;;;;;8.65;4.93;;;21.80;67.90;;;;;;5033494;28;20542;-73
2022/05/17 07:59:27;;;;;;;10.27;5.63;;;21.80;67.60;;;;;;5053396;28;20037;-73
2022/05/17 08:01:52;;;;;;;7.97;4.75;;;21.90;67.30;;;;;;5039837;28;20179;-74
2022/05/17 08:04:18;;;;;;;6.25;4.60;;;22.00;67.10;;;;;;5032865;28;20087;-74
2022/05/17 08:06:43;;;;;;;8.70;4.35;;;22.10;66.90;;;;;;5012801;28;20025;-74
2022/05/17 08:09:09;;;;;;;8.10;4.78;;;22.20;66.60;;;;;;5030723;28;20032;-73
2022/05/17 08:11:34;;;;;;;6.80;4.65;;;22.30;66.20;;;;;;5066945;28;20041;-75
2022/05/17 08:14:00;;;;;;;8.90;4.05;;;22.40;65.70;;;;;;5039938;28;20392;-74
2022/05/17 08:16:26;;;;;;;8.80;4.03;;;22.40;65.50;;;;;;5037988;28;20111;-74
2022/05/17 08:18:51;;;;;;;8.50;3.63;;;22.40;65.00;;;;;;5014462;28;20713;-74
2022/05/17 08:21:17;;;;;;;8.52;4.25;;;22.50;65.00;;;;;;5053368;28;20123;-73
2022/05/17 08:23:43;;;;;;;9.80;3.72;;;22.60;64.60;;;;;;5037236;28;20068;-74
2022/05/17 08:28:52;;;;;;;5.32;3.40;;;22.90;63.90;;;;;;5048121;28;20052;-74
2022/05/17 08:31:18;;;;;;;6.78;3.85;;;23.00;63.40;;;;;;5050740;28;20032;-75
2022/05/17 08:33:44;;;;;;;8.63;3.22;;;23.10;63.00;;;;;;5024839;28;20053;-74
2022/05/17 08:36:10;;;;;;;9.75;3.53;;;23.20;62.50;;;;;;5053752;28;20064;-74
2022/05/17 08:38:37;;;;;;;4.88;3.10;;;23.20;62.10;;;;;;5044096;28;20032;-74
2022/05/17 08:41:23;;;;;;;12.43;3.55;;;23.30;61.70;;;;;;5050927;28;20044;-74
2022/05/17 08:44:02;;;;;;;6.38;3.75;;;23.30;61.10;;;;;;5055600;28;20055;-74
2022/05/17 08:46:34;;;;;;;10.82;3.72;;;23.40;61.10;;;;;;5028528;28;20414;-73
2022/05/17 08:49:05;;;;;;;4.18;3.08;;;23.60;61.00;;;;;;5059183;28;20037;-74
2022/05/17 08:51:44;;;;;;;4.00;3.20;;;23.60;60.70;;;;;;5056424;28;20376;-73
2022/05/17 08:54:13;;;;;;;5.82;3.50;;;23.70;60.20;;;;;;5034019;28;20126;-74
2022/05/17 08:56:42;;;;;;;7.03;4.38;;;23.90;60.30;;;;;;5039843;28;20055;-74
2022/05/17 08:59:07;;;;;;;8.55;3.60;;;24.00;59.90;;;;;;5039153;28;20059;-75
2022/05/17 09:01:43;;;;;;;9.40;3.45;;;24.20;59.70;;;;;;5051518;28;20153;-74
2022/05/17 09:05:05;;;;;;;7.15;3.40;;;24.40;59.20;;;;;;5056156;28;20032;-74
2022/05/17 09:07:43;;;;;;;10.48;3.47;;;24.70;58.80;;;;;;4994944;28;20544;-73
2022/05/17 09:10:24;;;;;;;5.75;3.35;;;24.90;58.30;;;;;;4965355;28;20176;-74
2022/05/17 09:12:52;;;;;;;;;;;25.10;57.80;;;;;;4983137;28;20487;-73
2022/05/17 09:15:18;;;;;;;6.05;3.47;;;25.20;58.00;;;;;;4956692;28;19931;-75
2022/05/17 09:17:44;;;;;;;8.73;4.15;;;25.40;57.90;;;;;;4976134;28;20045;-74
2022/05/17 09:20:13;;;;;;;4.93;3.20;;;25.70;57.40;;;;;;4986943;28;20037;-74
2022/05/17 09:22:38;;;;;;;7.50;3.88;;;25.80;56.90;;;;;;4955972;28;20133;-74
2022/05/17 09:25:50;;;;;;;7.20;3.30;;;25.90;56.40;;;;;;4972770;28;20038;-74
2022/05/17 09:28:26;;;;;;;7.53;4.15;;;25.80;54.80;;;;;;4976839;28;20034;-74
2022/05/17 09:31:08;;;;;;;5.13;3.40;;;25.70;55.40;;;;;;4983402;28;20042;-74
2022/05/17 09:33:34;;;;;;;6.15;3.72;;;25.70;55.20;;;;;;4977235;28;20053;-75
2022/05/17 09:36:00;;;;;;;6.28;3.53;;;25.70;55.80;;;;;;4946541;28;20053;-74
2022/05/17 09:38:30;;;;;;;7.30;3.72;;;25.90;55.70;;;;;;4937626;28;20122;-74
2022/05/17 09:40:56;;;;;;;8.75;3.88;;;25.90;55.10;;;;;;4999858;28;20813;-72
2022/05/17 09:43:37;;;;;;;6.72;3.33;;;26.00;54.90;;;;;;5012600;28;20048;-72
2022/05/17 09:46:09;;;;;;;;;;;26.00;54.60;;;;;;5029381;28;20032;-72
2022/05/17 09:54:42;;;;;;;6.75;3.30;;;26.60;53.80;;;;;;5026523;28;20470;-75
2022/05/17 09:57:16;;;;;;;7.47;3.55;;;26.90;53.70;;;;;;5005988;28;20044;-74
2022/05/17 09:59:42;;;;;;;8.55;4.07;;;27.10;53.40;;;;;;5023400;28;20043;-74
2022/05/17 10:02:28;;;;;;;7.07;3.00;;;27.30;53.10;;;;;;5017690;28;20072;-75
2022/05/17 10:04:54;;;;;;;11.50;3.20;;;27.40;52.10;;;;;;5033204;28;20044;-74
2022/05/17 10:07:20;;;;;;;8.38;3.97;;;27.60;52.50;;;;;;5013673;28;20041;-75
2022/05/17 10:09:45;;;;;;;6.50;3.38;;;27.70;52.20;;;;;;5006423;28;20054;-74
2022/05/17 10:12:33;;;;;;;5.65;3.33;;;27.90;51.90;;;;;;5034666;28;20088;-75
2022/05/17 10:15:05;;;;;;;4.57;2.70;;;28.10;50.60;;;;;;5046201;28;20140;-74
2022/05/17 10:17:47;;;;;;;4.85;2.83;;;28.10;51.00;;;;;;5019803;28;20063;-74
2022/05/17 10:20:18;;;;;;;4.18;3.40;;;28.20;50.80;;;;;;5017615;28;20037;-72
2022/05/17 10:22:49;;;;;;;10.57;3.30;;;28.30;50.30;;;;;;5002541;28;20066;-72
2022/05/17 10:25:22;;;;;;;6.80;3.20;;;28.20;49.90;;;;;;5032621;28;20044;-72
2022/05/17 10:27:54;;;;;;;5.63;2.78;;;28.20;50.10;;;;;;5033165;28;20130;-71
2022/05/17 10:30:41;;;;;;;5.78;3.10;;;28.30;49.50;;;;;;5013407;28;20064;-72
2022/05/17 10:33:10;;;;;;;3.63;2.88;;;28.40;49.60;;;;;;5015217;28;20137;-72
2022/05/17 10:35:50;;;;;;;4.53;2.95;;;28.60;49.50;;;;;;5010789;28;20047;-71
2022/05/17 10:38:21;;;;;;;4.70;2.57;;;28.80;49.40;;;;;;5023232;28;20048;-72
2022/05/17 10:40:48;;;;;;;6.88;2.70;;;28.90;48.90;;;;;;5019148;28;20267;-72
2022/05/17 10:43:23;;;;;;;5.97;2.72;;;28.80;48.70;;;;;;5023924;28;20087;-73
2022/05/17 10:46:06;;;;;;;14.70;3.60;;;29.00;48.70;;;;;;5022154;28;20037;-72
2022/05/17 10:48:49;;;;;;;6.45;2.90;;;29.30;48.10;;;;;;4990403;28;20036;-72
2022/05/17 10:51:20;;;;;;;4.25;2.35;;;29.60;47.40;;;;;;5029197;28;20037;-72
2022/05/17 10:54:04;;;;;;;;;;;29.90;47.60;;;;;;5024877;28;20051;-72
2022/05/17 10:56:51;;;;;;;6.72;2.80;;;30.20;47.60;;;;;;5039563;28;19978;-72
2022/05/17 10:59:16;;;;;;;4.18;2.90;;;30.50;47.00;;;;;;5040268;28;20037;-74
2022/05/17 11:01:43;;;;;;;3.92;2.50;;;30.80;46.50;;;;;;5051789;28;20032;-72
2022/05/17 11:04:59;;;;;;;4.38;2.50;;;31.00;46.20;;;;;;5026375;28;20037;-73
2022/05/17 11:07:31;;;;;;;3.53;2.30;;;31.30;45.30;;;;;;5018797;28;20053;-72
2022/05/17 11:10:21;;;;;;;6.85;2.22;;;31.60;45.60;;;;;;5026998;28;20064;-72
2022/05/17 11:12:49;;;;;;;5.70;2.35;;;31.90;44.10;;;;;;5013991;28;20082;-73
2022/05/17 11:15:35;;;;;;;4.45;2.55;;;32.10;44.60;;;;;;5023778;28;20060;-72
2022/05/17 11:18:13;;;;;;;6.45;2.88;;;32.20;43.40;;;;;;5009774;28;20518;-74
2022/05/17 11:20:45;;;;;;;3.92;2.42;;;32.20;44.50;;;;;;5009885;28;20040;-74
2022/05/17 11:23:40;;;;;;;3.08;2.40;;;32.20;43.40;;;;;;5023094;28;20060;-74
2022/05/17 11:26:28;;;;;;;3.95;2.67;;;32.10;42.40;;;;;;5040457;28;20066;-73
2022/05/17 11:29:00;;;;;;;4.68;2.40;;;32.10;42.30;;;;;;5026597;28;20029;-74
2022/05/17 11:31:28;;;;;;;4.55;2.85;;;32.10;42.70;;;;;;5052601;28;20463;-74
2022/05/17 11:33:54;;;;;;;3.55;2.33;;;32.00;42.80;;;;;;5030588;28;20048;-74
2022/05/17 11:36:31;;;;;;;5.25;2.88;;;32.00;42.70;;;;;;5033025;28;20041;-73
2022/05/17 11:38:57;;;;;;;3.80;2.17;;;31.90;42.00;;;;;;5061436;28;20063;-73
2022/05/17 11:41:42;;;;;;;4.15;2.35;;;32.00;42.50;;;;;;5032633;28;20429;-73
2022/05/17 11:44:11;;;;;;;3.38;2.50;;;32.10;41.50;;;;;;5062554;28;20042;-74
2022/05/17 11:46:49;;;;;;;3.33;2.30;;;32.10;42.00;;;;;;5048872;28;20040;-74
2022/05/17 11:49:17;;;;;;;5.65;2.78;;;32.10;42.20;;;;;;5013934;28;20044;-74
2022/05/17 11:51:58;;;;;;;3.92;2.10;;;32.00;41.60;;;;;;5070328;28;20624;-73
2022/05/17 11:54:42;;;;;;;;;;;31.90;40.80;;;;;;5062682;28;20043;-73
2022/05/17 11:57:28;;;;;;;3.90;2.25;;;31.90;41.70;;;;;;5037382;28;20011;-75
2022/05/17 11:59:58;;;;;;;4.20;2.58;;;31.80;41.10;;;;;;5047458;28;20126;-73
2022/05/17 12:02:44;;;;;;;4.60;2.40;;;31.80;41.80;;;;;;5040580;28;20033;-74
2022/05/17 12:05:31;;;;;;;4.93;2.05;;;31.70;40.70;;;;;;5057466;28;20271;-74
2022/05/17 12:08:35;;;;;;;3.50;2.42;;;31.70;41.50;;;;;;5051075;28;20506;-74
2022/05/17 12:11:10;;;;;;;2.03;1.77;;;31.70;41.40;;;;;;5066420;28;20653;-74
2022/05/17 12:13:59;;;;;;;3.95;2.13;;;31.70;40.90;;;;;;5039720;28;20020;-73
2022/05/17 12:16:26;;;;;;;2.55;2.03;;;31.70;40.60;;;;;;5029131;28;20043;-74
2022/05/17 12:18:53;;;;;;;2.80;1.80;;;31.60;41.10;;;;;;5044937;28;20039;-73
2022/05/17 12:21:24;;;;;;;2.22;1.95;;;31.60;40.90;;;;;;5011515;28;20582;-73
2022/05/17 12:24:18;;;;;;;2.53;2.20;;;31.70;40.80;;;;;;5056137;28;20036;-74
2022/05/17 12:27:12;;;;;;;5.18;1.90;;;31.60;39.90;;;;;;5051404;28;20032;-74
2022/05/17 12:32:28;;;;;;;3.63;2.10;;;31.50;40.60;;;;;;5063305;28;20039;-74
2022/05/17 12:34:57;;;;;;;3.47;2.25;;;31.50;41.10;;;;;;5032480;28;20040;-74
2022/05/17 12:37:25;;;;;;;5.05;2.08;;;31.40;40.70;;;;;;5036111;28;20025;-74
2022/05/17 12:45:23;;;;;;;5.40;2.03;;;31.30;40.60;;;;;;5051958;28;20092;-74
2022/05/17 12:47:51;;;;;;;4.60;2.22;;;31.40;40.60;;;;;;5059005;28;21063;-75
2022/05/17 12:50:20;;;;;;;4.03;2.10;;;31.50;40.40;;;;;;5059286;28;20028;-74
2022/05/17 12:52:46;;;;;;;2.35;1.90;;;31.60;40.20;;;;;;5064254;28;21303;-75
2022/05/17 12:55:23;;;;;;;3.10;1.98;;;31.70;40.20;;;;;;5063763;28;20119;-74
2022/05/17 12:57:48;;;;;;;3.13;2.10;;;31.80;39.80;;;;;;5037692;28;21002;-74
2022/05/17 13:00:25;;;;;;;3.10;1.90;;;31.90;40.00;;;;;;5048832;28;20040;-75
2022/05/17 13:02:58;;;;;;;3.83;2.00;;;32.10;39.70;;;;;;5050773;28;20032;-74
2022/05/17 13:05:40;;;;;;;2.80;2.13;;;32.20;39.70;;;;;;5048655;28;20027;-75
2022/05/17 13:08:15;;;;;;;3.42;1.60;;;32.40;39.20;;;;;;5054247;28;20060;-75
2022/05/17 13:10:43;;;;;;;2.50;1.90;;;32.50;39.10;;;;;;5063691;28;20031;-75
2022/05/17 13:13:19;;;;;;;2.35;1.58;;;32.50;39.20;;;;;;5044387;28;20158;-76
2022/05/17 13:15:47;;;;;;;4.22;1.65;;;32.60;39.10;;;;;;5059954;28;20047;-74
2022/05/17 13:18:12;;;;;;;7.28;2.00;;;32.80;39.10;;;;;;5044427;28;20025;-76